Time;durP1;ratioP1;P1;durP2;ratioP2;P2;SDS_P1;SDS_P2;PMS_P1;PMS_P2;Temp;Humidity;BMP_temperature;BMP_pressure;BME280_temperature;BME280_humidity;BME280_pressure;Samples;Min_cycle;Max_cycle;Signal;HPM_P1;HPM_P2
2023/05/30 00:00:37;;;;;;;6.50;5.00;;;;;;;11.39;87.23;95585.85;106553;1256;22540;-72
2023/05/30 00:03:26;;;;;;;8.60;5.50;;;;;;;11.46;87.57;95591.50;106574;1276;23297;-72
2023/05/30 00:05:54;;;;;;;12.80;7.60;;;;;;;11.44;86.96;95591.02;106436;1276;25406;-72
2023/05/30 00:08:22;;;;;;;21.60;10.70;;;;;;;11.42;87.28;95589.13;106554;1262;24341;-72
2023/05/30 00:10:51;;;;;;;25.90;14.10;;;;;;;11.43;86.85;95585.24;106642;1275;22644;-72
2023/05/30 00:13:20;;;;;;;14.60;9.00;;;;;;;11.44;87.29;95589.63;106467;1267;22635;-72
2023/05/30 00:15:49;;;;;;;6.50;5.20;;;;;;;11.42;86.79;95586.30;106584;1275;22511;-72
2023/05/30 00:18:17;;;;;;;9.80;5.40;;;;;;;11.34;86.08;95590.55;106632;1275;22758;-72
2023/05/30 00:20:45;;;;;;;7.30;4.80;;;;;;;11.22;85.95;95589.22;106556;1275;22751;-72
2023/05/30 00:23:13;;;;;;;7.30;5.80;;;;;;;11.12;85.65;95591.17;106101;1275;682518;-72
2023/05/30 00:25:42;;;;;;;7.50;5.90;;;;;;;11.02;85.96;95595.95;106559;1275;22527;-72
2023/05/30 00:28:10;;;;;;;6.20;4.90;;;;;;;10.94;86.49;95592.95;106617;1275;22595;-72
2023/05/30 00:30:38;;;;;;;6.30;4.60;;;;;;;10.85;86.01;95597.18;106628;1275;24260;-72
2023/05/30 00:33:07;;;;;;;5.50;4.70;;;;;;;10.82;86.38;95599.87;106579;1275;24328;-72
2023/05/30 00:35:35;;;;;;;10.30;6.20;;;;;;;10.82;86.58;95597.05;106558;1275;22758;-72
2023/05/30 00:38:04;;;;;;;7.40;5.70;;;;;;;10.85;86.84;95597.71;106598;1275;26017;-72
2023/05/30 00:40:32;;;;;;;8.30;5.90;;;;;;;10.86;86.86;95594.37;106564;1275;23915;-72
2023/05/30 00:43:00;;;;;;;8.70;5.80;;;;;;;10.84;87.30;95594.05;106614;1266;22527;-73
2023/05/30 00:45:28;;;;;;;11.60;6.30;;;;;;;10.87;88.17;95597.69;106592;1275;25334;-72
2023/05/30 00:47:58;;;;;;;16.10;7.20;;;;;;;10.87;88.25;95602.08;106566;1275;24267;-72
2023/05/30 00:50:31;;;;;;;10.70;5.90;;;;;;;10.92;88.33;95602.33;106574;1275;22509;-73
2023/05/30 00:53:01;;;;;;;6.80;5.20;;;;;;;10.95;88.01;95602.98;106610;1275;22628;-73
2023/05/30 00:55:30;;;;;;;8.20;5.20;;;;;;;10.96;87.91;95602.95;106583;1275;22521;-72
2023/05/30 00:57:58;;;;;;;8.20;4.80;;;;;;;10.97;88.03;95597.83;106433;1275;24383;-72
2023/05/30 01:00:27;;;;;;;6.90;4.80;;;;;;;11.03;88.15;95598.92;106613;1275;25262;-72
2023/05/30 01:02:59;;;;;;;26.60;12.80;;;;;;;11.09;87.67;95596.34;106655;1275;25266;-72
2023/05/30 01:05:31;;;;;;;19.50;8.40;;;;;;;11.00;86.41;95599.70;106604;1275;22503;-72
2023/05/30 01:07:59;;;;;;;12.40;7.30;;;;;;;10.91;86.69;95606.20;106593;1275;23003;-72
2023/05/30 01:10:30;;;;;;;13.20;7.30;;;;;;;10.88;87.33;95604.52;106621;1275;22816;-72
2023/05/30 01:13:02;;;;;;;6.90;4.90;;;;;;;10.93;87.56;95606.88;106659;1275;25563;-72
2023/05/30 01:15:36;;;;;;;6.20;4.80;;;;;;;10.94;87.32;95609.85;106664;1275;25469;-73
2023/05/30 01:18:25;;;;;;;9.30;4.60;;;;;;;10.93;86.81;95610.06;106603;1275;22525;-73
2023/05/30 01:20:59;;;;;;;11.00;4.50;;;;;;;10.89;86.70;95609.42;106583;1275;22518;-73
2023/05/30 01:24:05;;;;;;;11.60;6.30;;;;;;;10.87;86.73;95604.73;106605;1275;24247;-73
2023/05/30 01:26:39;;;;;;;9.00;5.10;;;;;;;10.81;86.37;95604.82;106686;1275;22519;-72
2023/05/30 01:29:17;;;;;;;9.80;5.70;;;;;;;10.78;86.78;95605.05;106557;1275;24226;-73
2023/05/30 01:31:47;;;;;;;7.00;4.70;;;;;;;10.75;86.58;95606.34;106589;1275;24040;-73
2023/05/30 01:34:15;;;;;;;7.50;4.80;;;;;;;10.76;86.92;95604.05;106680;1275;24312;-73
2023/05/30 01:36:45;;;;;;;7.60;5.10;;;;;;;10.78;86.87;95603.10;106633;1275;25777;-74
2023/05/30 01:39:14;;;;;;;7.00;4.60;;;;;;;10.78;86.70;95599.07;106563;1275;24392;-74
2023/05/30 01:42:02;;;;;;;5.50;4.40;;;;;;;10.66;85.90;95600.55;106643;1275;22636;-74
2023/05/30 01:44:36;;;;;;;6.80;4.80;;;;;;;10.52;86.01;95601.85;106561;1275;24462;-74
2023/05/30 01:47:21;;;;;;;4.90;4.10;;;;;;;10.44;86.32;95598.82;106578;1275;22530;-73
2023/05/30 01:50:03;;;;;;;5.70;4.00;;;;;;;10.35;86.58;95595.80;106602;1263;22517;-73
2023/05/30 01:52:40;;;;;;;8.70;5.50;;;;;;;10.27;87.74;95603.51;106597;1275;22524;-74
2023/05/30 01:55:11;;;;;;;18.30;7.80;;;;;;;10.24;88.05;95596.34;106617;1275;22524;-74
2023/05/30 01:57:48;;;;;;;12.70;7.00;;;;;;;10.23;88.48;95595.14;106574;1275;25461;-74
2023/05/30 02:00:21;;;;;;;6.30;4.80;;;;;;;10.16;88.27;95593.48;106490;1275;24339;-73
2023/05/30 02:02:50;;;;;;;5.80;4.90;;;;;;;10.13;88.13;95592.83;106594;1275;25410;-74
2023/05/30 02:05:18;;;;;;;6.30;5.10;;;;;;;10.14;88.14;95594.21;106573;1275;25215;-73
2023/05/30 02:07:46;;;;;;;12.10;6.90;;;;;;;10.16;88.33;95600.16;106600;1275;22519;-73
2023/05/30 02:10:14;;;;;;;14.20;8.00;;;;;;;10.13;88.24;95598.11;106569;1275;22507;-72
2023/05/30 02:12:49;;;;;;;15.50;7.70;;;;;;;10.05;88.38;95597.54;106636;1275;22523;-73
2023/05/30 02:15:18;;;;;;;7.20;4.70;;;;;;;10.03;88.30;95599.67;106580;1275;24528;-73
2023/05/30 02:17:46;;;;;;;7.10;5.60;;;;;;;10.01;88.35;95597.24;106641;1275;22796;-73
2023/05/30 02:20:14;;;;;;;7.50;4.90;;;;;;;10.01;89.14;95597.25;106565;1275;22538;-73
2023/05/30 02:22:42;;;;;;;7.10;4.90;;;;;;;10.03;89.21;95595.64;106563;1275;24263;-73
2023/05/30 02:25:11;;;;;;;5.50;4.60;;;;;;;10.04;88.92;95597.20;106596;1275;25465;-72
2023/05/30 02:27:40;;;;;;;6.70;5.10;;;;;;;10.05;88.67;95595.07;106610;1275;25377;-72
2023/05/30 02:30:09;;;;;;;9.90;6.00;;;;;;;10.08;88.67;95594.49;106589;1275;22763;-73
2023/05/30 02:32:37;;;;;;;13.20;7.20;;;;;;;10.02;88.26;95593.55;106665;1275;22599;-72
2023/05/30 02:35:06;;;;;;;9.10;5.40;;;;;;;9.91;88.16;95593.37;106600;1275;23164;-72
2023/05/30 02:37:34;;;;;;;8.40;4.90;;;;;;;9.89;88.26;95596.03;106601;1275;22634;-73
2023/05/30 02:40:03;;;;;;;7.80;4.90;;;;;;;9.98;89.09;95593.26;106579;1275;23884;-72
2023/05/30 02:42:31;;;;;;;7.20;4.70;;;;;;;10.10;89.27;95593.58;106641;1275;22529;-72
2023/05/30 02:45:00;;;;;;;6.50;5.10;;;;;;;10.19;88.94;95593.09;106577;1275;24186;-72
2023/05/30 02:47:28;;;;;;;7.40;4.90;;;;;;;10.24;88.76;95594.92;106579;1275;25398;-73
2023/05/30 02:49:56;;;;;;;10.10;6.40;;;;;;;10.27;88.29;95596.65;106585;1275;22644;-72
2023/05/30 02:52:25;;;;;;;6.60;5.10;;;;;;;10.26;88.48;95599.47;106594;1270;24468;-73
2023/05/30 02:54:57;;;;;;;11.60;5.50;;;;;;;10.32;88.70;95601.85;106643;1275;22517;-73
2023/05/30 02:57:25;;;;;;;10.60;5.10;;;;;;;10.37;88.41;95601.23;106571;1275;22530;-72
2023/05/30 03:00:02;;;;;;;9.20;5.30;;;;;;;10.36;88.54;95601.25;106564;1275;24039;-73
2023/05/30 03:02:30;;;;;;;6.50;4.90;;;;;;;10.35;88.12;95601.09;106636;1275;25321;-73
2023/05/30 03:04:59;;;;;;;5.60;4.80;;;;;;;10.43;88.22;95600.61;106690;1275;25319;-73
2023/05/30 03:07:28;;;;;;;13.00;5.40;;;;;;;10.45;87.83;95600.05;106600;1275;22635;-73
2023/05/30 03:09:56;;;;;;;11.40;6.10;;;;;;;10.47;88.33;95598.61;106606;1275;23897;-72
2023/05/30 03:12:25;;;;;;;12.90;8.00;;;;;;;10.57;88.17;95601.23;106441;1275;24275;-73
2023/05/30 03:14:53;;;;;;;25.90;13.50;;;;;;;10.65;88.16;95595.98;106583;1275;24361;-72
2023/05/30 03:17:22;;;;;;;29.60;14.70;;;;;;;10.66;86.91;95598.97;106607;1275;24197;-73
2023/05/30 03:19:51;;;;;;;36.30;15.90;;;;;;;10.60;86.64;95599.77;106644;1275;25472;-73
2023/05/30 03:22:21;;;;;;;31.60;17.00;;;;;;;10.55;86.78;95596.52;106569;1275;23151;-73
2023/05/30 03:24:49;;;;;;;26.40;13.50;;;;;;;10.49;86.81;95600.52;106599;1275;24315;-72
2023/05/30 03:27:17;;;;;;;27.80;10.40;;;;;;;10.45;87.14;95598.46;106665;1275;25475;-70
2023/05/30 03:29:47;;;;;;;9.70;7.20;;;;;;;10.45;87.62;95600.03;106543;1275;23720;-72
2023/05/30 03:32:16;;;;;;;25.10;11.70;;;;;;;10.43;88.35;95600.09;106607;1275;26078;-72
2023/05/30 03:34:46;;;;;;;37.10;18.30;;;;;;;10.44;88.59;95601.47;106661;1275;25201;-72
2023/05/30 03:37:16;;;;;;;37.00;17.50;;;;;;;10.47;88.37;95599.84;106606;1275;26922;-73
2023/05/30 03:39:44;;;;;;;27.80;13.10;;;;;;;10.45;88.33;95601.27;106576;1275;22641;-71
2023/05/30 03:42:13;;;;;;;22.40;12.40;;;;;;;10.39;88.41;95607.70;106566;1275;22527;-71
2023/05/30 03:44:41;;;;;;;20.90;10.90;;;;;;;10.36;89.19;95607.40;106546;1275;22510;-71
2023/05/30 03:47:09;;;;;;;24.70;11.70;;;;;;;10.39;89.48;95606.48;106589;1275;25403;-71
2023/05/30 03:49:38;;;;;;;27.40;13.00;;;;;;;10.39;89.88;95610.68;106609;1275;24163;-71
2023/05/30 03:52:07;;;;;;;17.20;10.10;;;;;;;10.44;90.14;95607.08;106554;1275;22653;-71
2023/05/30 03:54:35;;;;;;;22.00;11.20;;;;;;;10.48;90.10;95609.14;106591;1275;22522;-71
2023/05/30 03:57:05;;;;;;;17.50;10.10;;;;;;;10.51;90.11;95608.20;106589;1275;25398;-70
2023/05/30 03:59:33;;;;;;;17.10;10.90;;;;;;;10.58;90.42;95606.84;106583;1265;22760;-71
2023/05/30 04:02:02;;;;;;;14.70;9.10;;;;;;;10.67;90.35;95610.53;106617;1275;22524;-71
2023/05/30 04:04:31;;;;;;;14.10;8.50;;;;;;;10.77;90.60;95612.98;106624;1275;22934;-71
2023/05/30 04:07:00;;;;;;;11.30;7.40;;;;;;;10.91;90.68;95619.23;106602;1275;24201;-71
2023/05/30 04:09:28;;;;;;;10.90;6.70;;;;;;;11.07;90.77;95617.16;106591;1275;25461;-71
2023/05/30 04:11:56;;;;;;;13.40;8.00;;;;;;;11.21;90.60;95619.15;106398;1276;22514;-71
2023/05/30 04:14:24;;;;;;;18.70;10.00;;;;;;;11.37;90.65;95617.44;106537;1276;22531;-71
2023/05/30 04:16:52;;;;;;;17.90;9.50;;;;;;;11.48;89.91;95618.24;106377;1276;22613;-72
2023/05/30 04:19:21;;;;;;;15.30;8.40;;;;;;;11.58;89.95;95618.19;106590;1276;22531;-71
2023/05/30 04:21:49;;;;;;;14.10;7.90;;;;;;;11.75;90.03;95619.59;106578;1276;23883;-71
2023/05/30 04:24:17;;;;;;;11.40;7.60;;;;;;;11.88;89.60;95612.95;106558;1276;24243;-71
2023/05/30 04:26:48;;;;;;;13.10;7.90;;;;;;;12.04;89.63;95610.66;106462;1276;22540;-71
2023/05/30 04:29:20;;;;;;;10.10;7.40;;;;;;;12.20;89.35;95612.55;106567;1276;25377;-71
2023/05/30 04:31:48;;;;;;;11.10;7.20;;;;;;;12.35;88.70;95612.02;106572;1276;22577;-71
2023/05/30 04:34:17;;;;;;;11.20;6.90;;;;;;;12.45;88.46;95606.64;106510;1276;22525;-71
2023/05/30 04:36:46;;;;;;;12.30;6.90;;;;;;;12.54;87.86;95615.59;106571;1276;25327;-71
2023/05/30 04:39:14;;;;;;;10.70;7.80;;;;;;;12.59;87.57;95616.88;106543;1276;23098;-71
2023/05/30 04:41:42;;;;;;;10.80;6.80;;;;;;;12.68;88.12;95614.86;106448;1276;24241;-71
2023/05/30 04:44:11;;;;;;;14.90;7.30;;;;;;;12.87;88.58;95611.17;106502;1276;24377;-71
2023/05/30 04:46:46;;;;;;;11.10;7.30;;;;;;;13.08;88.94;95608.83;106612;1276;22530;-71
2023/05/30 04:49:16;;;;;;;10.40;7.30;;;;;;;13.31;88.76;95605.89;106513;1276;24385;-71
2023/05/30 04:51:45;;;;;;;12.10;7.00;;;;;;;13.51;88.23;95604.08;106472;1276;22686;-71
2023/05/30 04:54:13;;;;;;;15.00;7.70;;;;;;;13.69;88.08;95606.20;106581;1276;24764;-71
2023/05/30 04:56:41;;;;;;;12.60;7.40;;;;;;;13.85;87.78;95601.46;106573;1276;24253;-71
2023/05/30 04:59:10;;;;;;;10.10;7.30;;;;;;;14.00;86.98;95601.69;106556;1276;24275;-68
2023/05/30 05:01:41;;;;;;;11.40;7.40;;;;;;;14.14;86.81;95601.96;106496;1276;24455;-69
2023/05/30 05:04:09;;;;;;;10.40;7.70;;;;;;;14.23;85.27;95601.11;106460;1276;24237;-70
2023/05/30 05:06:37;;;;;;;13.10;7.20;;;;;;;14.33;85.72;95603.09;106548;1276;22633;-69
2023/05/30 05:09:06;;;;;;;9.70;6.80;;;;;;;14.47;85.36;95603.67;106386;1276;25396;-69
2023/05/30 05:11:33;;;;;;;9.50;7.10;;;;;;;14.56;84.82;95604.13;106602;1275;25329;-67
2023/05/30 05:14:02;;;;;;;11.80;7.10;;;;;;;14.58;83.90;95600.70;106687;1275;22809;-73
2023/05/30 05:16:30;;;;;;;9.00;5.60;;;;;;;14.65;83.96;95601.36;106970;1275;22543;-68
2023/05/30 05:18:58;;;;;;;9.60;6.60;;;;;;;14.70;83.45;95598.69;106969;1275;24354;-69
2023/05/30 05:21:26;;;;;;;11.40;6.50;;;;;;;14.77;83.20;95598.13;106967;1275;25457;-72
2023/05/30 05:23:55;;;;;;;9.00;6.10;;;;;;;14.86;83.15;95600.63;106943;1256;22524;-69
2023/05/30 05:26:24;;;;;;;10.10;6.20;;;;;;;14.93;83.12;95597.70;106997;1275;22604;-70
2023/05/30 05:28:53;;;;;;;7.10;6.20;;;;;;;15.01;83.04;95598.13;107004;1275;22735;-69
2023/05/30 05:31:21;;;;;;;8.30;6.30;;;;;;;15.11;83.05;95598.83;106561;1275;24369;-69
2023/05/30 05:33:51;;;;;;;8.50;5.90;;;;;;;15.21;83.10;95599.00;106810;1275;22526;-73
2023/05/30 05:36:21;;;;;;;10.30;6.20;;;;;;;15.31;83.07;95597.94;106958;1275;25391;-68
2023/05/30 05:38:50;;;;;;;10.00;6.90;;;;;;;15.39;82.82;95602.95;106920;1275;24369;-71
2023/05/30 05:41:18;;;;;;;11.70;7.30;;;;;;;15.47;82.57;95603.17;106895;1275;24283;-69
2023/05/30 05:43:46;;;;;;;10.50;7.20;;;;;;;15.55;82.56;95605.36;106824;1275;22551;-70
2023/05/30 05:46:14;;;;;;;12.00;7.10;;;;;;;15.65;82.34;95600.58;106942;1275;22607;-73
2023/05/30 05:48:42;;;;;;;16.20;7.20;;;;;;;15.73;82.23;95600.61;106845;1275;24208;-68
2023/05/30 05:51:11;;;;;;;8.80;6.10;;;;;;;15.85;81.87;95594.34;106946;1275;25214;-69
2023/05/30 05:53:40;;;;;;;8.60;6.20;;;;;;;15.94;81.84;95589.88;106914;1275;24886;-70
2023/05/30 05:56:08;;;;;;;10.90;6.50;;;;;;;16.05;81.75;95588.91;106953;1275;23051;-70
2023/05/30 05:58:36;;;;;;;7.90;5.60;;;;;;;16.18;81.52;95590.14;106867;1253;22771;-72
2023/05/30 06:01:04;;;;;;;6.80;5.30;;;;;;;16.32;81.26;95584.95;106813;1275;22606;-74
2023/05/30 06:03:33;;;;;;;8.50;5.60;;;;;;;16.44;80.68;95583.21;106882;1275;25271;-69
2023/05/30 06:06:01;;;;;;;7.80;5.20;;;;;;;16.61;80.90;95583.58;106754;1275;25488;-71
2023/05/30 06:08:30;;;;;;;10.10;5.60;;;;;;;16.77;80.82;95579.72;106942;1275;25323;-70
2023/05/30 06:10:58;;;;;;;8.50;5.70;;;;;;;16.93;80.42;95580.12;106915;1275;22524;-68
2023/05/30 06:13:26;;;;;;;8.80;5.90;;;;;;;17.07;80.24;95580.18;106659;1275;22774;-69
2023/05/30 06:15:55;;;;;;;15.80;8.90;;;;;;;17.24;80.05;95578.73;106533;1275;22783;-71
2023/05/30 06:18:23;;;;;;;19.60;7.40;;;;;;;17.40;79.85;95578.92;106548;1275;25274;-72
2023/05/30 06:20:51;;;;;;;10.70;6.30;;;;;;;17.56;79.44;95580.32;106594;1275;24411;-69
2023/05/30 06:23:20;;;;;;;20.00;6.30;;;;;;;17.70;79.56;95576.61;106676;1275;22638;-69
2023/05/30 06:25:49;;;;;;;15.60;5.30;;;;;;;17.87;79.35;95577.09;106982;1275;22543;-69
2023/05/30 06:28:17;;;;;;;11.50;5.20;;;;;;;18.05;79.02;95575.89;106848;1272;22539;-68
2023/05/30 06:30:45;;;;;;;12.70;5.60;;;;;;;18.22;78.52;95574.67;106943;1275;24257;-75
2023/05/30 06:33:13;;;;;;;14.20;6.40;;;;;;;18.35;78.06;95572.13;106871;1275;22511;-70
2023/05/30 06:35:41;;;;;;;12.30;7.30;;;;;;;18.52;77.89;95577.51;106984;1275;25406;-71
2023/05/30 06:38:09;;;;;;;8.30;6.50;;;;;;;18.67;76.83;95578.33;106887;1275;22527;-70
2023/05/30 06:40:38;;;;;;;9.40;6.20;;;;;;;18.76;71.90;95576.98;106829;1275;22663;-68
2023/05/30 06:43:06;;;;;;;10.50;6.70;;;;;;;18.89;72.67;95576.52;106932;1275;22741;-70
2023/05/30 06:45:34;;;;;;;10.30;5.90;;;;;;;18.99;72.92;95574.61;106806;1275;22510;-69
2023/05/30 06:48:03;;;;;;;10.30;6.50;;;;;;;19.04;71.49;95575.39;106813;1275;24460;-69
2023/05/30 06:50:31;;;;;;;10.60;5.90;;;;;;;19.07;70.20;95576.89;106607;1269;23893;-69
2023/05/30 06:52:59;;;;;;;10.40;6.10;;;;;;;19.12;69.39;95573.73;106609;1269;24443;-70
2023/05/30 06:55:28;;;;;;;9.40;5.90;;;;;;;19.20;69.22;95570.98;106585;1272;22783;-69
2023/05/30 06:57:56;;;;;;;10.70;5.10;;;;;;;19.32;69.44;95572.69;106467;1273;23138;-69
2023/05/30 07:00:24;;;;;;;8.70;5.90;;;;;;;19.44;68.82;95572.77;106481;1273;24384;-69
2023/05/30 07:02:53;;;;;;;8.30;4.70;;;;;;;19.46;62.95;95570.13;106529;1271;22544;-69
2023/05/30 07:05:21;;;;;;;10.00;5.40;;;;;;;19.45;64.08;95574.65;106509;1271;22514;-72
2023/05/30 07:07:50;;;;;;;5.90;4.80;;;;;;;19.53;64.07;95577.09;106450;1271;22637;-70
2023/05/30 07:10:18;;;;;;;7.30;4.70;;;;;;;19.60;61.60;95578.34;106829;1273;22521;-74
2023/05/30 07:12:46;;;;;;;6.40;4.60;;;;;;;19.65;63.39;95574.11;106783;1272;25329;-73
2023/05/30 07:15:14;;;;;;;8.60;5.30;;;;;;;19.72;64.00;95572.00;106830;1271;25295;-70
2023/05/30 07:17:43;;;;;;;6.90;5.80;;;;;;;19.82;61.41;95571.77;106752;1270;22527;-70
2023/05/30 07:20:11;;;;;;;6.10;5.10;;;;;;;19.94;63.27;95573.80;106444;1272;24086;-74
2023/05/30 07:22:40;;;;;;;8.20;5.50;;;;;;;19.99;63.64;95571.54;106975;1271;24343;-70
2023/05/30 07:25:08;;;;;;;8.70;5.60;;;;;;;20.02;63.12;95571.17;106563;1269;25304;-73
2023/05/30 07:27:36;;;;;;;7.50;5.70;;;;;;;20.03;62.96;95569.89;106873;1275;24367;-72
2023/05/30 07:30:05;;;;;;;9.60;5.50;;;;;;;20.05;62.91;95570.52;106841;1275;25312;-72
2023/05/30 07:32:33;;;;;;;8.00;5.50;;;;;;;20.12;62.40;95571.35;107009;1275;22524;-70
2023/05/30 07:35:02;;;;;;;9.30;5.60;;;;;;;20.24;61.23;95574.05;106823;1275;23920;-71
2023/05/30 07:37:30;;;;;;;7.50;5.40;;;;;;;20.47;62.17;95571.33;106931;1275;22519;-72
2023/05/30 07:40:06;;;;;;;7.60;5.30;;;;;;;20.68;61.34;95570.67;106953;1275;22529;-72
2023/05/30 07:42:38;;;;;;;13.90;5.70;;;;;;;20.85;61.42;95568.92;106990;1275;24184;-71
2023/05/30 07:45:07;;;;;;;9.60;6.10;;;;;;;21.09;61.19;95568.75;106916;1275;22528;-72
2023/05/30 07:47:35;;;;;;;12.40;5.80;;;;;;;21.31;60.34;95567.74;106875;1275;22549;-72
2023/05/30 07:50:06;;;;;;;8.90;5.70;;;;;;;21.51;57.84;95570.86;106839;1275;25400;-72
2023/05/30 07:52:35;;;;;;;8.20;5.70;;;;;;;21.68;57.25;95568.77;106824;1275;23726;-72
2023/05/30 07:55:04;;;;;;;8.10;5.30;;;;;;;21.84;56.59;95566.29;106835;1275;22533;-72
2023/05/30 07:57:32;;;;;;;8.30;5.70;;;;;;;22.00;56.19;95565.60;106625;1275;22649;-70
2023/05/30 08:00:00;;;;;;;8.20;5.20;;;;;;;22.23;56.06;95565.59;106577;1275;23118;-72
2023/05/30 08:02:38;;;;;;;8.30;5.50;;;;;;;22.42;53.91;95564.36;106621;1275;24255;-73
2023/05/30 08:05:07;;;;;;;8.30;5.70;;;;;;;22.63;53.25;95563.19;106532;1275;24262;-70
2023/05/30 08:07:35;;;;;;;8.60;5.70;;;;;;;22.60;52.15;95566.59;106621;1270;22527;-74
2023/05/30 08:10:07;;;;;;;8.50;5.40;;;;;;;22.41;52.77;95566.23;106598;1275;25376;-70
2023/05/30 08:12:36;;;;;;;6.60;5.50;;;;;;;22.26;53.48;95568.45;106564;1275;24304;-69
2023/05/30 08:15:04;;;;;;;6.80;5.40;;;;;;;22.07;53.35;95570.88;106560;1275;22646;-68
2023/05/30 08:17:33;;;;;;;8.50;5.90;;;;;;;21.88;53.64;95575.15;106607;1275;24100;-69
2023/05/30 08:20:03;;;;;;;6.70;5.30;;;;;;;21.69;54.11;95573.84;106596;1275;23911;-72
2023/05/30 08:22:31;;;;;;;6.10;5.10;;;;;;;21.47;54.03;95572.16;106624;1275;24200;-72
2023/05/30 08:25:00;;;;;;;8.00;5.30;;;;;;;21.27;53.53;95573.18;106666;1275;22523;-71
2023/05/30 08:27:28;;;;;;;8.30;5.60;;;;;;;21.10;54.01;95574.23;106548;1275;22580;-67
2023/05/30 08:29:57;;;;;;;6.20;5.00;;;;;;;20.97;54.94;95577.87;106761;1275;22525;-67
2023/05/30 08:32:27;;;;;;;8.90;5.40;;;;;;;20.90;55.98;95581.35;106502;1275;24203;-67
2023/05/30 08:34:55;;;;;;;25.80;5.90;;;;;;;20.84;55.77;95580.83;106620;1263;22705;-67
2023/05/30 08:37:23;;;;;;;7.50;5.30;;;;;;;20.76;56.40;95578.95;106599;1275;22590;-67
2023/05/30 08:39:52;;;;;;;12.50;5.80;;;;;;;20.72;56.57;95579.33;106677;1275;23158;-67
2023/05/30 08:42:20;;;;;;;8.80;5.40;;;;;;;20.70;57.52;95573.92;106589;1275;24843;-67
2023/05/30 08:44:48;;;;;;;8.50;5.50;;;;;;;20.73;58.10;95569.99;106559;1275;26600;-67
2023/05/30 08:47:19;;;;;;;13.80;5.80;;;;;;;20.77;58.69;95570.52;106576;1275;22643;-68
2023/05/30 08:49:51;;;;;;;9.10;5.10;;;;;;;20.82;58.16;95571.61;106651;1275;24739;-66
2023/05/30 08:52:24;;;;;;;8.80;5.80;;;;;;;20.86;57.46;95574.42;106942;1275;25522;-68
2023/05/30 08:55:17;;;;;;;10.00;5.80;;;;;;;20.90;57.31;95575.77;106975;1275;23878;-67
2023/05/30 08:57:51;;;;;;;8.60;5.70;;;;;;;20.96;56.83;95575.41;106934;1275;24189;-71
2023/05/30 09:00:21;;;;;;;9.50;5.80;;;;;;;21.01;56.13;95576.05;107090;1275;23926;-72
